createdAt,value
2018-03-27T06:55:31.486Z,6.1
2018-03-27T06:56:31.591Z,6.12
2018-03-27T06:57:31.512Z,6.11
2018-03-27T06:58:08.797Z,6.13
2018-03-27T06:59:09.309Z,6.16
2018-03-27T07:00:08.810Z,6.17
2018-03-27T07:01:08.792Z,6.15
2018-03-27T07:02:08.877Z,6.15
2018-03-27T07:03:08.853Z,6.13
2018-03-27T07:04:08.932Z,6.19
2018-03-27T07:05:08.859Z,6.17
2018-03-27T07:06:08.901Z,6.13
2018-03-27T07:07:08.897Z,6.2
2018-03-27T07:08:08.854Z,6.17
2018-03-27T07:09:08.940Z,6.12
2018-03-27T07:10:08.938Z,6.16
2018-03-27T07:11:08.862Z,6.19
2018-03-27T07:12:08.920Z,6.13
2018-03-27T07:13:08.913Z,6.14
2018-03-27T07:14:09.015Z,6.13
2018-03-27T07:15:08.927Z,6.13
2018-03-27T07:16:08.932Z,6.16
2018-03-27T07:17:08.896Z,6.23
2018-03-27T07:18:08.945Z,6.21
2018-03-27T07:19:08.962Z,6.17
2018-03-27T07:20:08.943Z,6.21
2018-03-27T07:21:08.814Z,6.21
2018-03-27T07:22:08.781Z,6.24
2018-03-27T07:23:08.788Z,6.32
2018-03-27T07:24:08.786Z,6.33
2018-03-27T07:25:08.806Z,6.3
2018-03-27T07:26:08.786Z,6.3
2018-03-27T07:27:08.782Z,6.35
2018-03-27T07:28:08.871Z,6.32
2018-03-27T07:29:08.753Z,6.33
2018-03-27T07:30:08.842Z,6.33
2018-03-27T07:31:08.781Z,6.39
2018-03-27T07:32:08.914Z,6.44
2018-03-27T07:33:08.765Z,6.38
2018-03-27T07:34:08.767Z,6.44
2018-03-27T07:35:08.746Z,6.42
2018-03-27T07:36:08.792Z,6.44
2018-03-27T07:37:08.793Z,6.45
2018-03-27T07:38:08.757Z,6.36
2018-03-27T07:39:08.742Z,6.48
2018-03-27T07:40:08.752Z,6.41
2018-03-27T07:41:08.765Z,6.49
2018-03-27T07:42:08.759Z,6.49
2018-03-27T07:43:08.734Z,6.52
2018-03-27T07:44:08.794Z,6.54
2018-03-27T07:45:08.747Z,6.47
2018-03-27T07:46:08.743Z,6.43
2018-03-27T07:47:08.772Z,6.49
2018-03-27T07:48:08.776Z,6.47
2018-03-27T07:49:08.734Z,6.51
2018-03-27T07:50:08.768Z,6.62
2018-03-27T07:51:08.741Z,6.57
2018-03-27T07:52:08.733Z,6.53
2018-03-27T07:53:08.775Z,6.54
2018-03-27T07:54:08.730Z,6.5
2018-03-27T07:55:08.719Z,6.55
2018-03-27T07:56:08.709Z,6.57
2018-03-27T07:57:08.721Z,6.56
2018-03-27T07:58:08.721Z,6.56
2018-03-27T07:59:08.810Z,6.6
2018-03-27T08:00:08.710Z,6.66
2018-03-27T08:01:08.717Z,6.67
2018-03-27T08:02:08.725Z,6.64
2018-03-27T08:03:08.696Z,6.69
2018-03-27T08:04:08.716Z,6.65
2018-03-27T08:05:08.707Z,6.72
2018-03-27T08:06:08.742Z,6.71
2018-03-27T08:07:08.707Z,6.71
2018-03-27T08:08:08.716Z,6.73
2018-03-27T08:09:08.688Z,6.68
2018-03-27T08:10:08.704Z,6.72
2018-03-27T08:11:09.196Z,6.66
2018-03-27T08:12:08.690Z,6.65
2018-03-27T08:13:08.708Z,6.63
2018-03-27T08:14:08.690Z,6.7
2018-03-27T08:15:08.707Z,6.74
2018-03-27T08:16:08.716Z,6.71
2018-03-27T08:17:08.691Z,6.69
2018-03-27T08:18:08.713Z,6.7
2018-03-27T08:19:08.674Z,6.71
2018-03-27T08:20:08.722Z,6.66
2018-03-27T08:21:08.702Z,6.71
2018-03-27T08:22:08.696Z,6.73
2018-03-27T08:23:08.671Z,6.79
2018-03-27T08:24:09.870Z,6.72
2018-03-27T08:25:08.665Z,6.81
2018-03-27T08:26:08.672Z,6.76
2018-03-27T08:27:08.680Z,6.73
2018-03-27T08:28:08.659Z,6.8
2018-03-27T08:29:08.658Z,6.8
2018-03-27T08:30:08.759Z,6.74
2018-03-27T08:31:08.674Z,6.82
2018-03-27T08:32:08.673Z,6.81
2018-03-27T08:33:08.667Z,6.83
2018-03-27T08:34:08.640Z,6.83
2018-03-27T08:35:08.658Z,6.86
2018-03-27T08:36:08.655Z,6.82
2018-03-27T08:37:08.645Z,6.79
2018-03-27T08:38:08.664Z,6.81
2018-03-27T08:39:08.938Z,6.83
2018-03-27T08:40:08.642Z,6.77
2018-03-27T08:41:08.670Z,6.75
2018-03-27T08:42:08.707Z,6.8
2018-03-27T08:43:08.635Z,6.79
2018-03-27T08:44:08.640Z,6.81
2018-03-27T08:45:08.646Z,6.85
2018-03-27T08:46:08.680Z,6.75
2018-03-27T08:47:08.631Z,6.78
2018-03-27T08:48:08.651Z,6.78
2018-03-27T08:49:08.682Z,6.79
2018-03-27T08:50:08.658Z,6.79
2018-03-27T08:51:08.672Z,6.91
2018-03-27T08:52:08.923Z,6.86
2018-03-27T08:53:08.653Z,6.92
2018-03-27T08:54:08.903Z,6.86
2018-03-27T08:55:08.632Z,6.89
2018-03-27T08:56:08.982Z,6.92
2018-03-27T08:57:08.692Z,6.91
2018-03-27T08:58:08.646Z,6.88
2018-03-27T08:59:08.637Z,6.97
2018-03-27T09:00:08.644Z,7.01
2018-03-27T09:01:08.729Z,7.06
2018-03-27T09:02:08.631Z,7.06
2018-03-27T09:03:08.728Z,6.99
2018-03-27T09:04:08.639Z,7
2018-03-27T09:05:08.621Z,6.96
2018-03-27T09:06:08.655Z,6.95
2018-03-27T09:07:08.628Z,7.04
2018-03-27T09:08:08.639Z,7.02
2018-03-27T09:09:08.944Z,6.97
2018-03-27T09:10:08.626Z,6.91
2018-03-27T09:11:08.638Z,6.8
2018-03-27T09:12:08.783Z,6.84
2018-03-27T09:13:09.037Z,6.81
2018-03-27T09:14:08.617Z,6.73
2018-03-27T09:15:08.815Z,6.77
2018-03-27T09:16:09.174Z,6.79
2018-03-27T09:17:08.639Z,6.78
2018-03-27T09:18:08.633Z,6.84
2018-03-27T09:19:08.610Z,6.85
2018-03-27T09:20:08.657Z,6.85
2018-03-27T09:21:08.613Z,6.88
2018-03-27T09:22:08.628Z,6.81
2018-03-27T09:23:08.635Z,6.87
2018-03-27T09:24:08.869Z,6.89
2018-03-27T09:25:08.643Z,6.84
2018-03-27T09:26:08.608Z,6.89
2018-03-27T09:27:08.652Z,6.88
2018-03-27T09:28:08.610Z,6.84
2018-03-27T09:29:08.617Z,6.87
2018-03-27T09:30:08.637Z,6.84
2018-03-27T09:31:08.634Z,6.81
2018-03-27T09:32:08.838Z,6.69
2018-03-27T09:33:08.618Z,6.72
2018-03-27T09:34:08.654Z,6.58
2018-03-27T09:35:08.617Z,6.48
2018-03-27T09:36:08.616Z,6.5
2018-03-27T09:37:08.614Z,6.49
2018-03-27T09:38:08.609Z,6.54
2018-03-27T09:39:08.634Z,6.48
2018-03-27T09:40:08.606Z,6.43
2018-03-27T09:41:08.623Z,6.35
2018-03-27T09:42:08.592Z,6.38
2018-03-27T09:43:08.603Z,6.31
2018-03-27T09:44:08.603Z,6.32
2018-03-27T09:45:08.626Z,6.36
2018-03-27T09:46:08.605Z,6.42
2018-03-27T09:47:08.615Z,6.46
2018-03-27T09:48:09.080Z,6.49
2018-03-27T09:49:08.597Z,6.51
2018-03-27T09:50:08.602Z,6.5
2018-03-27T09:51:08.694Z,6.53
2018-03-27T09:52:08.609Z,6.5
2018-03-27T09:53:08.597Z,6.42
2018-03-27T09:54:08.593Z,6.41
2018-03-27T09:55:08.619Z,6.41
2018-03-27T09:56:08.606Z,6.39
2018-03-27T09:57:08.585Z,6.43
2018-03-27T09:58:08.601Z,6.4
2018-03-27T09:59:08.594Z,6.42
2018-03-27T10:00:08.646Z,6.44
2018-03-27T10:01:08.599Z,6.46
2018-03-27T10:02:08.585Z,6.45
2018-03-27T10:03:08.707Z,6.43
2018-03-27T10:04:08.592Z,6.37
2018-03-27T10:05:08.599Z,6.34
2018-03-27T10:06:08.587Z,6.38
2018-03-27T10:07:08.615Z,6.4
2018-03-27T10:08:08.612Z,6.42
2018-03-27T10:09:08.651Z,6.38
2018-03-27T10:10:08.588Z,6.39
2018-03-27T10:11:08.584Z,6.38
2018-03-27T10:12:08.592Z,6.39
2018-03-27T10:13:08.571Z,6.32
2018-03-27T10:14:08.594Z,6.28
2018-03-27T10:15:08.607Z,6.24
2018-03-27T10:16:08.581Z,6.27
2018-03-27T10:17:08.571Z,6.3
2018-03-27T10:18:08.570Z,6.31
2018-03-27T10:19:08.658Z,6.29
2018-03-27T10:20:08.593Z,6.34
2018-03-27T10:21:08.561Z,6.26
2018-03-27T10:22:08.962Z,6.2
2018-03-27T10:23:08.600Z,6.28
2018-03-27T10:24:08.624Z,6.32
2018-03-27T10:25:08.584Z,6.31
2018-03-27T10:26:08.874Z,6.23
2018-03-27T10:27:08.625Z,6.16
2018-03-27T10:28:08.590Z,6.24
2018-03-27T10:29:08.626Z,6.25
2018-03-27T10:30:08.653Z,6.18
2018-03-27T10:31:08.583Z,6.22
2018-03-27T10:32:08.579Z,6.26
2018-03-27T10:33:08.610Z,6.2
2018-03-27T10:34:08.625Z,6.16
2018-03-27T10:35:08.562Z,6.17
2018-03-27T10:36:08.588Z,6.06
2018-03-27T10:37:08.579Z,6.07
2018-03-27T10:38:11.647Z,6.13
2018-03-27T10:39:08.584Z,6.11
2018-03-27T10:40:08.563Z,6.08
2018-03-27T10:41:08.614Z,6.06
2018-03-27T10:42:08.592Z,6.04
2018-03-27T10:43:08.593Z,6.02
2018-03-27T10:44:08.567Z,6.03
2018-03-27T10:45:08.563Z,5.93
2018-03-27T10:46:08.553Z,5.9
2018-03-27T10:47:08.584Z,5.86
2018-03-27T10:48:08.568Z,5.9
2018-03-27T10:49:08.560Z,5.96
2018-03-27T10:50:08.583Z,5.96
2018-03-27T10:51:08.580Z,5.95
2018-03-27T10:52:08.555Z,6.01
2018-03-27T10:53:08.556Z,6.04
2018-03-27T10:54:08.922Z,5.99
2018-03-27T10:55:08.572Z,5.88
2018-03-27T10:56:08.558Z,5.89
2018-03-27T10:57:08.574Z,5.89
2018-03-27T10:58:08.549Z,5.76
2018-03-27T10:59:08.579Z,5.78
2018-03-27T11:00:08.569Z,5.86
2018-03-27T11:01:08.548Z,5.86
2018-03-27T11:02:08.555Z,5.93
2018-03-27T11:03:08.595Z,5.85
2018-03-27T11:04:08.583Z,5.8
2018-03-27T11:05:08.652Z,5.86
2018-03-27T11:06:08.574Z,5.82
2018-03-27T11:07:08.590Z,5.91
2018-03-27T11:08:08.563Z,5.88
2018-03-27T11:09:08.568Z,5.92
2018-03-27T11:10:08.603Z,5.95
2018-03-27T11:11:08.682Z,6.06
2018-03-27T11:12:08.576Z,6.09
2018-03-27T11:13:09.256Z,6.05
2018-03-27T11:14:08.632Z,6.07
2018-03-27T11:15:08.648Z,6.1
2018-03-27T11:16:12.908Z,6.11
2018-03-27T11:17:08.592Z,6.13
2018-03-27T11:18:08.563Z,6.15
2018-03-27T11:19:08.567Z,6.14
2018-03-27T11:20:08.594Z,6.1
2018-03-27T11:21:08.610Z,6.04
2018-03-27T11:22:08.583Z,6.07
2018-03-27T11:23:08.592Z,6.04
2018-03-27T11:24:08.591Z,6.09
2018-03-27T11:25:08.581Z,6.01
2018-03-27T11:26:08.577Z,6.05
2018-03-27T11:27:08.785Z,5.95
2018-03-27T11:28:08.597Z,6.02
2018-03-27T11:29:08.594Z,6.03
2018-03-27T11:30:08.588Z,5.99
2018-03-27T11:31:08.653Z,5.96
2018-03-27T11:32:09.272Z,6.01
2018-03-27T11:33:08.565Z,5.97
2018-03-27T11:34:08.578Z,5.98
2018-03-27T11:35:08.690Z,5.99
2018-03-27T11:36:08.675Z,6.01
2018-03-27T11:37:08.590Z,5.89
2018-03-27T11:38:08.602Z,5.87
2018-03-27T11:39:08.597Z,5.81
2018-03-27T11:40:08.610Z,5.75
2018-03-27T11:41:08.586Z,5.82
2018-03-27T11:42:08.577Z,5.83
2018-03-27T11:43:08.644Z,5.79
2018-03-27T11:44:08.590Z,5.74
2018-03-27T11:45:08.613Z,5.72
2018-03-27T11:46:08.575Z,5.78
2018-03-27T11:47:08.591Z,5.78
2018-03-27T11:48:08.683Z,5.69
2018-03-27T11:49:08.637Z,5.64
2018-03-27T11:50:08.601Z,5.67
2018-03-27T11:51:08.622Z,5.62
2018-03-27T11:52:08.629Z,5.63
2018-03-27T11:53:08.709Z,5.7
2018-03-27T11:54:08.591Z,5.69
2018-03-27T11:55:08.602Z,5.7
2018-03-27T11:56:08.588Z,5.67
2018-03-27T11:57:08.664Z,5.69
2018-03-27T11:58:08.595Z,5.61
2018-03-27T11:59:08.600Z,5.61
2018-03-27T12:00:08.608Z,5.63
2018-03-27T12:01:08.593Z,5.6
2018-03-27T12:02:08.592Z,5.68
2018-03-27T12:03:08.619Z,5.69
2018-03-27T12:04:08.609Z,5.63
2018-03-27T12:05:08.642Z,5.61
2018-03-27T12:06:08.598Z,5.68
2018-03-27T12:07:08.689Z,5.71
2018-03-27T12:08:08.644Z,5.53
2018-03-27T12:09:08.624Z,5.7
2018-03-27T12:10:08.643Z,5.62
2018-03-27T12:11:08.621Z,5.55
2018-03-27T12:12:08.633Z,5.59
2018-03-27T12:13:08.616Z,5.62
2018-03-27T12:14:08.603Z,5.57
2018-03-27T12:15:08.612Z,5.6
2018-03-27T12:16:08.657Z,5.5
2018-03-27T12:17:08.593Z,5.66
2018-03-27T12:18:08.629Z,5.57
2018-03-27T12:19:08.606Z,5.63
2018-03-27T12:20:08.604Z,5.62
2018-03-27T12:21:09.031Z,5.52
2018-03-27T12:22:08.597Z,5.64
2018-03-27T12:23:08.591Z,5.6
2018-03-27T12:24:08.605Z,5.54
2018-03-27T12:24:57.340Z,5.38
2018-03-27T12:25:57.337Z,5.5
2018-03-27T12:26:57.311Z,5.56
2018-03-27T12:27:57.294Z,5.53
2018-03-27T12:28:57.327Z,5.6
2018-03-27T12:29:57.386Z,5.51
2018-03-27T12:30:57.300Z,5.55
2018-03-27T12:31:57.287Z,5.5
2018-03-27T12:32:57.333Z,5.46
2018-03-27T12:33:57.297Z,5.27
2018-03-27T12:34:57.297Z,5.39
2018-03-27T12:35:57.326Z,5.49
2018-03-27T12:36:57.507Z,5.53
2018-03-27T12:37:57.293Z,5.56
2018-03-27T12:38:57.302Z,5.54
2018-03-27T12:39:57.306Z,5.59
2018-03-27T12:40:57.314Z,5.68
2018-03-27T12:41:57.269Z,5.51
2018-03-27T12:42:57.277Z,5.5
2018-03-27T12:43:57.277Z,5.54
2018-03-27T12:44:57.262Z,5.64
2018-03-27T12:45:57.288Z,5.46
2018-03-27T12:46:57.302Z,5.55
2018-03-27T12:47:57.276Z,5.5
2018-03-27T12:48:57.693Z,5.64
2018-03-27T12:49:57.271Z,5.39
2018-03-27T12:50:57.287Z,5.41
2018-03-27T12:51:57.277Z,5.19
2018-03-27T12:52:57.264Z,5.5
2018-03-27T12:53:57.310Z,5.31
2018-03-27T12:54:57.369Z,5.49
2018-03-27T12:55:57.259Z,5.19
2018-03-27T12:56:57.349Z,5.18
2018-03-27T12:57:57.272Z,5.47
2018-03-27T12:58:57.233Z,5.5
2018-03-27T12:59:57.261Z,5.36
2018-03-27T13:00:57.269Z,5.45
2018-03-27T13:01:57.260Z,5.39
2018-03-27T13:02:57.318Z,5.43
2018-03-27T13:03:57.250Z,5.36
2018-03-27T13:04:57.553Z,5.23
2018-03-27T13:05:57.250Z,5.3
2018-03-27T13:06:57.257Z,5.51
2018-03-27T13:07:57.228Z,5.41
2018-03-27T13:08:57.243Z,5.46
2018-03-27T13:09:57.267Z,5.41
2018-03-27T13:10:57.235Z,5.29
2018-03-27T13:11:57.242Z,5.2
2018-03-27T13:12:57.230Z,5.25
2018-03-27T13:13:57.242Z,5.13
2018-03-27T13:14:57.255Z,5.2
2018-03-27T13:15:57.226Z,5.25
2018-03-27T13:16:57.232Z,5.22
2018-03-27T13:17:57.252Z,5.25
2018-03-27T13:18:57.216Z,5.21
2018-03-27T13:19:57.551Z,5.2
2018-03-27T13:20:57.220Z,5.15
2018-03-27T13:21:57.235Z,5.32
2018-03-27T13:22:57.277Z,5.5
2018-03-27T13:23:57.241Z,5.37
2018-03-27T13:24:57.248Z,5.46
2018-03-27T13:25:57.309Z,5.49
2018-03-27T13:26:57.242Z,5.42
2018-03-27T13:27:57.262Z,5.23
2018-03-27T13:28:57.211Z,4.98
2018-03-27T13:29:57.218Z,5.15
2018-03-27T13:30:57.193Z,5.29
2018-03-27T13:31:57.218Z,5.28
2018-03-27T13:32:57.200Z,5.51
2018-03-27T13:33:57.185Z,5.46
2018-03-27T13:34:57.353Z,5.46
2018-03-27T13:35:57.222Z,5.46
2018-03-27T13:36:57.202Z,5.17
2018-03-27T13:37:57.206Z,5.06
2018-03-27T13:38:57.782Z,5.26
2018-03-27T13:39:57.188Z,5.44
2018-03-27T13:40:57.240Z,5.1
2018-03-27T13:41:57.200Z,5.1
2018-03-27T13:42:57.180Z,4.94
2018-03-27T13:43:57.181Z,5.15
2018-03-27T13:44:57.183Z,5.11
2018-03-27T13:45:57.214Z,5.08
2018-03-27T13:46:57.164Z,4.97
2018-03-27T13:47:57.502Z,4.94
2018-03-27T13:48:57.190Z,5.09
2018-03-27T13:49:57.167Z,5.13
2018-03-27T13:50:57.206Z,5.3
2018-03-27T13:51:57.194Z,5.3
2018-03-27T13:52:57.181Z,5.15
2018-03-27T13:53:57.168Z,5.16
2018-03-27T13:54:57.166Z,5.24
2018-03-27T13:55:57.444Z,5.36
2018-03-27T13:56:57.224Z,5.02
2018-03-27T13:57:57.170Z,4.94
2018-03-27T13:58:57.259Z,5.19
2018-03-27T13:59:57.248Z,4.89
2018-03-27T14:00:57.232Z,5.13
2018-03-27T14:01:57.240Z,4.99
2018-03-27T14:02:57.206Z,5.09
2018-03-27T14:03:57.255Z,5.08
2018-03-27T14:04:58.103Z,4.88
2018-03-27T14:05:57.838Z,4.87
2018-03-27T14:06:57.306Z,4.76
2018-03-27T14:07:57.375Z,4.93
2018-03-27T14:08:57.356Z,5.07
2018-03-27T14:09:57.427Z,4.82
2018-03-27T14:10:57.328Z,5.14
2018-03-27T14:11:57.206Z,5.19
2018-03-27T14:12:57.267Z,5.02
2018-03-27T14:13:57.220Z,5.28
2018-03-27T14:14:57.587Z,5.07
2018-03-27T14:15:57.281Z,5.16
2018-03-27T14:16:57.264Z,4.89
2018-03-27T14:17:57.215Z,5.06
2018-03-27T14:18:57.217Z,5.24
2018-03-27T14:19:57.229Z,4.94
2018-03-27T14:20:57.236Z,4.86
2018-03-27T14:21:57.278Z,4.88
2018-03-27T14:22:57.182Z,4.87
2018-03-27T14:23:57.186Z,4.9
2018-03-27T14:24:57.268Z,4.88
2018-03-27T14:25:57.253Z,4.81
2018-03-27T14:26:57.271Z,4.9
2018-03-27T14:27:57.364Z,4.99
2018-03-27T14:28:57.179Z,5.11
2018-03-27T14:29:57.219Z,5
2018-03-27T14:30:57.277Z,5.19
2018-03-27T14:31:57.202Z,5.28
2018-03-27T14:32:57.318Z,4.94
2018-03-27T14:33:57.225Z,4.93
2018-03-27T14:34:57.161Z,4.88
2018-03-27T14:35:57.193Z,4.97
2018-03-27T14:36:57.482Z,4.96
2018-03-27T14:37:57.236Z,5.08
2018-03-27T14:38:57.171Z,5.1
2018-03-27T14:39:57.166Z,5.08
2018-03-27T14:40:57.239Z,4.93
2018-03-27T14:41:57.209Z,5
2018-03-27T14:42:57.214Z,5
2018-03-27T14:43:57.183Z,5.19
2018-03-27T14:44:57.172Z,5.09
2018-03-27T14:45:57.190Z,5.1
2018-03-27T14:46:57.118Z,5.11
2018-03-27T14:47:57.269Z,5.09
2018-03-27T14:48:57.225Z,5.06
2018-03-27T14:49:57.161Z,5.24
2018-03-27T14:50:57.174Z,5.25
2018-03-27T14:51:57.195Z,5.05
2018-03-27T14:52:57.182Z,5.16
2018-03-27T14:53:57.140Z,5.1
2018-03-27T14:54:57.137Z,5.16
2018-03-27T14:55:57.263Z,5.13
2018-03-27T14:56:57.183Z,5.17
2018-03-27T14:57:57.171Z,5.16
2018-03-27T14:58:57.213Z,5.29
2018-03-27T14:59:57.211Z,5.16
2018-03-27T15:00:57.147Z,5.11
2018-03-27T15:01:57.152Z,5.11
2018-03-27T15:02:57.118Z,5.06
2018-03-27T15:03:57.159Z,5.06
2018-03-27T15:04:57.441Z,5.13
2018-03-27T15:05:57.204Z,5.14
2018-03-27T15:06:57.185Z,5.04
2018-03-27T15:07:57.180Z,5.01
2018-03-27T15:08:57.172Z,5.05
2018-03-27T15:09:57.196Z,5.08
2018-03-27T15:10:57.276Z,5.04
2018-03-27T15:11:57.151Z,5.16
2018-03-27T15:12:57.165Z,5.15
2018-03-27T15:13:57.128Z,5.24
2018-03-27T15:14:57.241Z,5.11
2018-03-27T15:15:57.144Z,5.04
2018-03-27T15:16:57.195Z,5.19
2018-03-27T15:17:57.160Z,5.01
2018-03-27T15:18:57.150Z,5.12
2018-03-27T15:19:57.138Z,4.9
2018-03-27T15:20:57.174Z,4.95
2018-03-27T15:21:57.305Z,4.9
2018-03-27T15:22:57.192Z,4.69
2018-03-27T15:23:57.141Z,4.88
2018-03-27T15:24:57.169Z,4.87
2018-03-27T15:25:57.158Z,4.91
2018-03-27T15:26:57.550Z,4.86
2018-03-27T15:27:57.205Z,4.85
2018-03-27T15:28:57.099Z,4.9
2018-03-27T15:29:57.218Z,4.9
2018-03-27T15:30:57.089Z,4.84
2018-03-27T15:31:57.336Z,4.78
2018-03-27T15:32:57.057Z,4.88
2018-03-27T15:33:57.070Z,4.9
2018-03-27T15:34:57.104Z,4.9
2018-03-27T15:35:57.114Z,4.84
2018-03-27T15:36:57.087Z,4.86
2018-03-27T15:37:57.068Z,4.87
2018-03-27T15:38:57.055Z,4.89
2018-03-27T15:39:57.048Z,4.99
2018-03-27T15:40:57.087Z,4.94
2018-03-27T15:41:57.035Z,4.92
2018-03-27T15:42:57.068Z,4.87
2018-03-27T15:43:57.037Z,4.89
2018-03-27T15:44:57.096Z,4.86
2018-03-27T15:45:57.064Z,4.82
2018-03-27T15:46:57.097Z,4.83
2018-03-27T15:47:57.076Z,4.87
2018-03-27T15:48:57.036Z,4.87
2018-03-27T15:49:57.043Z,4.86
2018-03-27T15:50:57.064Z,4.83
2018-03-27T15:51:57.055Z,4.88
2018-03-27T15:52:57.036Z,4.99
2018-03-27T15:53:57.087Z,4.96
2018-03-27T15:54:57.065Z,4.96
2018-03-27T15:55:57.047Z,4.83
2018-03-27T15:56:57.085Z,4.87
2018-03-27T15:57:57.124Z,4.86
2018-03-27T15:58:57.049Z,4.8
2018-03-27T15:59:57.040Z,4.86
2018-03-27T16:00:57.084Z,4.91
2018-03-27T16:01:57.336Z,5.01
2018-03-27T16:02:57.039Z,5.06
2018-03-27T16:03:57.036Z,5.05
2018-03-27T16:04:57.045Z,5.09
2018-03-27T16:05:57.028Z,4.97
2018-03-27T16:06:57.352Z,5.01
2018-03-27T16:07:57.105Z,5.03
2018-03-27T16:08:57.040Z,5.02
2018-03-27T16:09:57.180Z,5.05
2018-03-27T16:10:57.034Z,5.05
2018-03-27T16:11:57.077Z,5.07
2018-03-27T16:12:57.054Z,5.14
2018-03-27T16:13:57.049Z,5.12
2018-03-27T16:14:57.033Z,4.98
2018-03-27T16:15:57.050Z,4.94
2018-03-27T16:16:57.048Z,4.95
2018-03-27T16:17:57.109Z,4.94
2018-03-27T16:18:57.063Z,4.93
2018-03-27T16:19:57.031Z,4.96
2018-03-27T16:20:57.040Z,4.95
2018-03-27T16:21:57.023Z,5.01
2018-03-27T16:22:57.075Z,5.07
2018-03-27T16:23:57.022Z,4.94
2018-03-27T16:24:57.046Z,4.94
2018-03-27T16:25:57.042Z,4.94
2018-03-27T16:26:57.018Z,4.91
2018-03-27T16:27:57.056Z,4.94
2018-03-27T16:28:57.058Z,4.9
2018-03-27T16:29:57.138Z,4.9
2018-03-27T16:30:57.708Z,4.92
2018-03-27T16:31:57.371Z,4.89
2018-03-27T16:32:57.031Z,4.9
2018-03-27T16:33:57.018Z,4.98
2018-03-27T16:34:57.024Z,5
2018-03-27T16:35:57.053Z,5
2018-03-27T16:36:57.023Z,5.06
2018-03-27T16:37:57.057Z,4.95
2018-03-27T16:38:57.037Z,4.93
2018-03-27T16:39:57.042Z,5.02
2018-03-27T16:40:57.034Z,4.87
2018-03-27T16:41:57.020Z,4.87
2018-03-27T16:42:57.035Z,4.92
2018-03-27T16:43:57.054Z,4.94
2018-03-27T16:44:57.011Z,4.94
2018-03-27T16:45:57.022Z,4.99
2018-03-27T16:46:57.149Z,5.06
2018-03-27T16:47:57.345Z,4.91
2018-03-27T16:48:57.015Z,4.93
2018-03-27T16:49:57.051Z,4.9
2018-03-27T16:50:57.061Z,4.88
2018-03-27T16:51:57.045Z,4.92
2018-03-27T16:52:57.127Z,4.97
2018-03-27T16:53:57.044Z,4.98
2018-03-27T16:54:57.039Z,4.96
2018-03-27T16:55:57.046Z,4.95
2018-03-27T16:56:57.101Z,5
2018-03-27T16:57:57.136Z,5.04
2018-03-27T16:58:57.044Z,5.04
2018-03-27T16:59:57.021Z,5.02
2018-03-27T17:00:57.066Z,5.04
2018-03-27T17:01:57.042Z,4.99
2018-03-27T17:02:57.133Z,4.99
2018-03-27T17:03:57.054Z,4.92
2018-03-27T17:04:57.094Z,4.91
2018-03-27T17:05:57.017Z,4.94
2018-03-27T17:06:57.046Z,4.93
2018-03-27T17:07:57.073Z,4.95
2018-03-27T17:08:57.038Z,5.02
2018-03-27T17:09:57.040Z,5
2018-03-27T17:10:57.025Z,4.99
2018-03-27T17:11:57.031Z,5.05
2018-03-27T17:12:57.056Z,5.03
2018-03-27T17:13:57.048Z,5.01
2018-03-27T17:14:57.044Z,5.06
2018-03-27T17:15:57.040Z,5.02
2018-03-27T17:16:57.101Z,5.09
2018-03-27T17:17:57.090Z,5.14
2018-03-27T17:18:57.395Z,5.2
2018-03-27T17:19:57.049Z,5.11
2018-03-27T17:20:57.068Z,5.13
2018-03-27T17:21:57.066Z,5.08
2018-03-27T17:22:57.028Z,4.94
2018-03-27T17:23:57.066Z,4.88
2018-03-27T17:24:57.039Z,4.94
2018-03-27T17:25:57.060Z,4.87
2018-03-27T17:26:57.070Z,4.96
2018-03-27T17:27:57.087Z,4.88
2018-03-27T17:28:57.111Z,4.89
2018-03-27T17:29:57.043Z,4.85
2018-03-27T17:30:57.044Z,4.9
2018-03-27T17:31:57.043Z,4.85
2018-03-27T17:32:57.032Z,4.88
2018-03-27T17:33:57.111Z,4.96
2018-03-27T17:34:57.045Z,4.98
2018-03-27T17:35:57.031Z,4.97
2018-03-27T17:36:57.102Z,4.97
2018-03-27T17:37:57.096Z,5.05
2018-03-27T17:38:57.073Z,5.11
2018-03-27T17:39:57.053Z,5.1
2018-03-27T17:40:57.065Z,5.13
2018-03-27T17:41:57.322Z,5.15
2018-03-27T17:42:57.060Z,5.09
2018-03-27T17:43:57.049Z,5.14
2018-03-27T17:44:57.052Z,5.13
2018-03-27T17:45:57.068Z,5.16
2018-03-27T17:46:57.046Z,5.25
2018-03-27T17:47:57.082Z,5.26
2018-03-27T17:48:57.105Z,5.25
2018-03-27T17:49:57.025Z,5.3
2018-03-27T17:50:57.090Z,5.31
2018-03-27T17:51:57.039Z,5.32
2018-03-27T17:52:57.138Z,5.33
2018-03-27T17:53:57.038Z,5.37
2018-03-27T17:54:57.038Z,5.41
2018-03-27T17:55:57.167Z,5.42
2018-03-27T17:56:57.049Z,5.47
2018-03-27T17:57:57.090Z,5.52
2018-03-27T17:58:57.030Z,5.57
2018-03-27T17:59:57.045Z,5.65
2018-03-27T18:00:57.052Z,5.52
2018-03-27T18:01:57.050Z,5.63
2018-03-27T18:02:57.057Z,5.65
2018-03-27T18:03:57.176Z,5.71
2018-03-27T18:04:57.489Z,5.67
2018-03-27T18:05:57.031Z,5.68
2018-03-27T18:06:57.059Z,5.72
2018-03-27T18:07:57.084Z,5.74
2018-03-27T18:08:57.092Z,5.7
2018-03-27T18:09:57.059Z,5.69
2018-03-27T18:10:57.050Z,5.62
2018-03-27T18:11:57.303Z,5.69
2018-03-27T18:12:57.159Z,5.75
2018-03-27T18:13:57.038Z,5.65
2018-03-27T18:14:57.056Z,5.59
2018-03-27T18:15:57.099Z,5.65
2018-03-27T18:16:57.065Z,5.63
2018-03-27T18:17:57.078Z,5.65
2018-03-27T18:18:57.056Z,5.72
2018-03-27T18:19:57.052Z,5.57
2018-03-27T18:20:57.037Z,5.69
2018-03-27T18:21:57.072Z,5.71
2018-03-27T18:22:57.111Z,5.73
2018-03-27T18:23:57.403Z,5.75
2018-03-27T18:24:57.050Z,5.7
2018-03-27T18:25:57.053Z,5.73
2018-03-27T18:26:57.082Z,5.8
2018-03-27T18:27:57.937Z,5.77
2018-03-27T18:28:57.048Z,5.81
2018-03-27T18:29:57.088Z,5.85
2018-03-27T18:30:57.460Z,5.88
2018-03-27T18:31:57.105Z,5.91
2018-03-27T18:32:57.055Z,5.92
2018-03-27T18:33:57.064Z,6.01
2018-03-27T18:34:57.102Z,6.04
2018-03-27T18:35:57.132Z,6.15
2018-03-27T18:36:57.069Z,6.04
2018-03-27T18:37:57.116Z,6.03
2018-03-27T18:38:57.070Z,6.1
2018-03-27T18:39:57.090Z,6.1
2018-03-27T18:40:57.050Z,6.07
2018-03-27T18:41:57.125Z,6.1
2018-03-27T18:42:57.079Z,6.04
2018-03-27T18:43:57.352Z,5.99
2018-03-27T18:44:57.067Z,6.03
2018-03-27T18:45:57.069Z,6.03
2018-03-27T18:46:57.087Z,6.01
2018-03-27T18:47:57.108Z,5.99
2018-03-27T18:48:57.156Z,6.02
2018-03-27T18:49:57.096Z,6.05
2018-03-27T18:50:57.374Z,6.02
2018-03-27T18:51:57.054Z,6.04
2018-03-27T18:52:57.091Z,6.08
2018-03-27T18:53:57.072Z,6.15
2018-03-27T18:54:57.133Z,6.04
2018-03-27T18:55:57.146Z,5.94
2018-03-27T18:56:57.146Z,6.11
2018-03-27T18:57:57.415Z,6.14
2018-03-27T18:58:57.177Z,6.2
2018-03-27T18:59:57.136Z,6.17
2018-03-27T19:00:57.074Z,6.11
2018-03-27T19:01:57.085Z,6.18
2018-03-27T19:02:57.087Z,6.16
2018-03-27T19:03:57.069Z,6.14
2018-03-27T19:04:57.106Z,6.14
2018-03-27T19:05:57.110Z,6.2
2018-03-27T19:06:57.158Z,6.18
2018-03-27T19:07:57.113Z,6.2
2018-03-27T19:08:57.088Z,6.38
2018-03-27T19:09:57.111Z,6.3
2018-03-27T19:10:57.101Z,6.21
2018-03-27T19:11:57.076Z,6.2
2018-03-27T19:12:57.094Z,6.34
2018-03-27T19:13:57.090Z,6.29
2018-03-27T19:14:57.110Z,6.37
2018-03-27T19:15:57.090Z,6.36
2018-03-27T19:16:57.082Z,6.36
2018-03-27T19:17:57.095Z,6.39
2018-03-27T19:18:57.077Z,6.44
2018-03-27T19:19:57.242Z,6.48
2018-03-27T19:20:57.072Z,6.38
2018-03-27T19:21:57.074Z,6.46
2018-03-27T19:22:57.118Z,6.38
2018-03-27T19:23:57.092Z,6.44
2018-03-27T19:24:57.061Z,6.46
2018-03-27T19:25:57.098Z,6.48
2018-03-27T19:26:57.303Z,6.41
2018-03-27T19:27:57.378Z,6.41
2018-03-27T19:28:57.110Z,6.41
2018-03-27T19:29:57.172Z,6.49
2018-03-27T19:30:57.416Z,6.51
2018-03-27T19:31:57.118Z,6.48
2018-03-27T19:32:57.090Z,6.49
2018-03-27T19:33:57.086Z,6.49
2018-03-27T19:34:57.075Z,6.52
2018-03-27T19:35:57.290Z,6.47
2018-03-27T19:36:57.197Z,6.44
2018-03-27T19:37:57.453Z,6.49
2018-03-27T19:38:57.279Z,6.47
2018-03-27T19:39:57.100Z,6.52
2018-03-27T19:40:57.191Z,6.59
2018-03-27T19:41:57.080Z,6.55
2018-03-27T19:42:57.119Z,6.62
2018-03-27T19:43:57.080Z,6.59
2018-03-27T19:44:57.090Z,6.64
2018-03-27T19:45:57.081Z,6.67
2018-03-27T19:46:57.109Z,6.58
2018-03-27T19:47:57.173Z,6.61
2018-03-27T19:48:57.075Z,6.59
2018-03-27T19:49:57.101Z,6.67
2018-03-27T19:50:57.112Z,6.72
2018-03-27T19:51:57.156Z,6.69
2018-03-27T19:52:57.115Z,6.77
2018-03-27T19:53:57.205Z,6.73
2018-03-27T19:54:57.101Z,6.78
2018-03-27T19:55:57.082Z,6.8
2018-03-27T19:56:57.087Z,6.81
2018-03-27T19:57:57.189Z,6.77
2018-03-27T19:58:57.091Z,6.63
2018-03-27T19:59:57.130Z,6.74
2018-03-27T20:00:57.173Z,6.82
2018-03-27T20:01:57.103Z,6.77
2018-03-27T20:02:57.097Z,6.78
2018-03-27T20:03:57.125Z,6.82
2018-03-27T20:04:57.179Z,6.74
2018-03-27T20:05:57.142Z,6.81
2018-03-27T20:06:57.115Z,6.75
2018-03-27T20:07:57.200Z,6.83
2018-03-27T20:08:57.301Z,6.81
2018-03-27T20:09:57.207Z,6.77
2018-03-27T20:10:57.163Z,6.82
2018-03-27T20:11:57.124Z,6.78
2018-03-27T20:12:57.232Z,6.84
2018-03-27T20:13:57.164Z,6.82
2018-03-27T20:14:57.128Z,6.85
2018-03-27T20:15:57.174Z,6.86